sensor_id;sensor_type;location;lat;lon;timestamp;P1;durP1;ratioP1;P2;durP2;ratioP2
11187;SDS011;5650;52.700;7.306;2022-10-22T00:00:05;18.92;;;13.75;;
11187;SDS011;5650;52.700;7.306;2022-10-22T00:02:38;23.30;;;15.18;;
11187;SDS011;5650;52.700;7.306;2022-10-22T00:05:06;22.63;;;14.38;;
11187;SDS011;5650;52.700;7.306;2022-10-22T00:07:40;16.35;;;13.43;;
11187;SDS011;5650;52.700;7.306;2022-10-22T00:10:07;22.38;;;14.40;;
11187;SDS011;5650;52.700;7.306;2022-10-22T00:12:41;18.75;;;14.00;;
11187;SDS011;5650;52.700;7.306;2022-10-22T00:15:17;19.50;;;13.55;;
11187;SDS011;5650;52.700;7.306;2022-10-22T00:17:52;23.48;;;13.60;;
11187;SDS011;5650;52.700;7.306;2022-10-22T00:20:19;18.58;;;14.52;;
11187;SDS011;5650;52.700;7.306;2022-10-22T00:22:46;22.42;;;14.77;;
11187;SDS011;5650;52.700;7.306;2022-10-22T00:25:25;20.02;;;14.23;;
11187;SDS011;5650;52.700;7.306;2022-10-22T00:27:52;19.73;;;14.27;;
11187;SDS011;5650;52.700;7.306;2022-10-22T00:30:22;16.98;;;12.77;;
11187;SDS011;5650;52.700;7.306;2022-10-22T00:32:50;19.00;;;12.10;;
11187;SDS011;5650;52.700;7.306;2022-10-22T00:35:23;14.98;;;11.95;;
11187;SDS011;5650;52.700;7.306;2022-10-22T00:37:56;17.65;;;12.50;;
11187;SDS011;5650;52.700;7.306;2022-10-22T00:40:32;21.95;;;12.73;;
11187;SDS011;5650;52.700;7.306;2022-10-22T00:43:02;16.42;;;13.25;;
11187;SDS011;5650;52.700;7.306;2022-10-22T00:45:35;17.92;;;13.23;;
11187;SDS011;5650;52.700;7.306;2022-10-22T00:48:04;18.73;;;12.15;;
11187;SDS011;5650;52.700;7.306;2022-10-22T00:50:34;15.07;;;11.30;;
11187;SDS011;5650;52.700;7.306;2022-10-22T00:53:05;23.30;;;12.50;;
11187;SDS011;5650;52.700;7.306;2022-10-22T00:55:43;20.48;;;12.65;;
11187;SDS011;5650;52.700;7.306;2022-10-22T00:58:15;12.00;;;10.80;;
11187;SDS011;5650;52.700;7.306;2022-10-22T01:00:45;20.55;;;12.45;;
11187;SDS011;5650;52.700;7.306;2022-10-22T01:03:13;14.23;;;11.45;;
11187;SDS011;5650;52.700;7.306;2022-10-22T01:05:44;13.60;;;10.10;;
11187;SDS011;5650;52.700;7.306;2022-10-22T01:08:19;14.80;;;9.90;;
11187;SDS011;5650;52.700;7.306;2022-10-22T01:10:53;15.93;;;11.30;;
11187;SDS011;5650;52.700;7.306;2022-10-22T01:13:33;17.20;;;10.95;;
11187;SDS011;5650;52.700;7.306;2022-10-22T01:16:08;14.60;;;11.32;;
11187;SDS011;5650;52.700;7.306;2022-10-22T01:18:44;14.13;;;10.23;;
11187;SDS011;5650;52.700;7.306;2022-10-22T01:21:27;15.27;;;9.90;;
11187;SDS011;5650;52.700;7.306;2022-10-22T01:27:19;14.35;;;9.93;;
11187;SDS011;5650;52.700;7.306;2022-10-22T01:30:11;12.52;;;9.90;;
11187;SDS011;5650;52.700;7.306;2022-10-22T01:32:44;11.70;;;9.98;;
11187;SDS011;5650;52.700;7.306;2022-10-22T01:35:18;14.15;;;9.07;;
11187;SDS011;5650;52.700;7.306;2022-10-22T01:37:55;12.52;;;9.10;;
11187;SDS011;5650;52.700;7.306;2022-10-22T01:40:27;14.02;;;9.45;;
11187;SDS011;5650;52.700;7.306;2022-10-22T01:42:56;17.73;;;9.85;;
11187;SDS011;5650;52.700;7.306;2022-10-22T01:45:25;22.75;;;10.70;;
11187;SDS011;5650;52.700;7.306;2022-10-22T01:47:56;16.75;;;9.95;;
11187;SDS011;5650;52.700;7.306;2022-10-22T01:50:32;14.63;;;9.55;;
11187;SDS011;5650;52.700;7.306;2022-10-22T01:53:17;16.50;;;9.50;;
11187;SDS011;5650;52.700;7.306;2022-10-22T01:55:55;15.52;;;9.50;;
11187;SDS011;5650;52.700;7.306;2022-10-22T01:58:39;19.55;;;9.93;;
11187;SDS011;5650;52.700;7.306;2022-10-22T02:01:14;14.80;;;9.13;;
11187;SDS011;5650;52.700;7.306;2022-10-22T02:04:00;10.45;;;8.25;;
11187;SDS011;5650;52.700;7.306;2022-10-22T02:06:31;16.67;;;9.80;;
11187;SDS011;5650;52.700;7.306;2022-10-22T02:08:59;14.02;;;9.68;;
11187;SDS011;5650;52.700;7.306;2022-10-22T02:11:31;16.02;;;10.18;;
11187;SDS011;5650;52.700;7.306;2022-10-22T02:14:02;18.33;;;10.10;;
11187;SDS011;5650;52.700;7.306;2022-10-22T02:16:33;14.55;;;10.20;;
11187;SDS011;5650;52.700;7.306;2022-10-22T02:19:06;14.38;;;10.15;;
11187;SDS011;5650;52.700;7.306;2022-10-22T02:21:39;15.00;;;10.38;;
11187;SDS011;5650;52.700;7.306;2022-10-22T02:24:10;18.60;;;10.95;;
11187;SDS011;5650;52.700;7.306;2022-10-22T02:26:38;15.38;;;10.25;;
11187;SDS011;5650;52.700;7.306;2022-10-22T02:32:01;20.90;;;11.35;;
11187;SDS011;5650;52.700;7.306;2022-10-22T02:34:31;16.17;;;11.27;;
11187;SDS011;5650;52.700;7.306;2022-10-22T02:36:58;16.20;;;10.57;;
11187;SDS011;5650;52.700;7.306;2022-10-22T02:39:27;13.80;;;10.98;;
11187;SDS011;5650;52.700;7.306;2022-10-22T02:42:01;15.57;;;10.90;;
11187;SDS011;5650;52.700;7.306;2022-10-22T02:44:31;20.17;;;11.13;;
11187;SDS011;5650;52.700;7.306;2022-10-22T02:46:58;18.20;;;11.35;;
11187;SDS011;5650;52.700;7.306;2022-10-22T02:49:30;18.95;;;11.15;;
11187;SDS011;5650;52.700;7.306;2022-10-22T02:52:04;19.30;;;11.98;;
11187;SDS011;5650;52.700;7.306;2022-10-22T02:54:31;15.60;;;11.27;;
11187;SDS011;5650;52.700;7.306;2022-10-22T02:57:01;19.88;;;11.52;;
11187;SDS011;5650;52.700;7.306;2022-10-22T02:59:31;30.33;;;14.15;;
11187;SDS011;5650;52.700;7.306;2022-10-22T03:01:58;18.35;;;12.82;;
11187;SDS011;5650;52.700;7.306;2022-10-22T03:04:27;21.50;;;13.38;;
11187;SDS011;5650;52.700;7.306;2022-10-22T03:07:00;16.67;;;11.05;;
11187;SDS011;5650;52.700;7.306;2022-10-22T03:09:30;20.92;;;11.70;;
11187;SDS011;5650;52.700;7.306;2022-10-22T03:12:06;17.80;;;10.68;;
11187;SDS011;5650;52.700;7.306;2022-10-22T03:14:39;20.38;;;12.48;;
11187;SDS011;5650;52.700;7.306;2022-10-22T03:17:15;18.80;;;11.30;;
11187;SDS011;5650;52.700;7.306;2022-10-22T03:19:44;20.48;;;13.38;;
11187;SDS011;5650;52.700;7.306;2022-10-22T03:22:14;23.95;;;13.20;;
11187;SDS011;5650;52.700;7.306;2022-10-22T03:24:53;19.20;;;13.65;;
11187;SDS011;5650;52.700;7.306;2022-10-22T03:27:31;22.58;;;11.82;;
11187;SDS011;5650;52.700;7.306;2022-10-22T03:30:00;16.80;;;12.55;;
11187;SDS011;5650;52.700;7.306;2022-10-22T03:32:29;26.63;;;13.95;;
11187;SDS011;5650;52.700;7.306;2022-10-22T03:34:59;15.52;;;11.77;;
11187;SDS011;5650;52.700;7.306;2022-10-22T03:37:41;21.92;;;13.73;;
11187;SDS011;5650;52.700;7.306;2022-10-22T03:40:16;16.85;;;12.52;;
11187;SDS011;5650;52.700;7.306;2022-10-22T03:42:43;26.13;;;14.57;;
11187;SDS011;5650;52.700;7.306;2022-10-22T03:45:11;22.35;;;15.75;;
11187;SDS011;5650;52.700;7.306;2022-10-22T03:47:42;20.75;;;14.90;;
11187;SDS011;5650;52.700;7.306;2022-10-22T03:50:09;26.17;;;15.40;;
11187;SDS011;5650;52.700;7.306;2022-10-22T03:52:36;20.40;;;13.82;;
11187;SDS011;5650;52.700;7.306;2022-10-22T03:55:08;28.20;;;16.83;;
11187;SDS011;5650;52.700;7.306;2022-10-22T03:57:41;20.83;;;15.75;;
11187;SDS011;5650;52.700;7.306;2022-10-22T04:00:09;27.50;;;15.13;;
11187;SDS011;5650;52.700;7.306;2022-10-22T04:02:36;26.88;;;15.35;;
11187;SDS011;5650;52.700;7.306;2022-10-22T04:05:08;24.05;;;15.63;;
11187;SDS011;5650;52.700;7.306;2022-10-22T04:07:35;29.35;;;16.02;;
11187;SDS011;5650;52.700;7.306;2022-10-22T04:10:05;28.90;;;16.48;;
11187;SDS011;5650;52.700;7.306;2022-10-22T04:12:33;26.00;;;16.15;;
11187;SDS011;5650;52.700;7.306;2022-10-22T04:15:00;21.23;;;14.65;;
11187;SDS011;5650;52.700;7.306;2022-10-22T04:17:31;23.08;;;15.32;;
11187;SDS011;5650;52.700;7.306;2022-10-22T04:20:00;22.55;;;15.40;;
11187;SDS011;5650;52.700;7.306;2022-10-22T04:22:33;23.33;;;15.10;;
11187;SDS011;5650;52.700;7.306;2022-10-22T04:25:00;22.80;;;13.80;;
11187;SDS011;5650;52.700;7.306;2022-10-22T04:27:30;23.88;;;15.68;;
11187;SDS011;5650;52.700;7.306;2022-10-22T04:29:58;23.27;;;15.32;;
11187;SDS011;5650;52.700;7.306;2022-10-22T04:32:25;25.30;;;15.43;;
11187;SDS011;5650;52.700;7.306;2022-10-22T04:34:59;24.40;;;16.48;;
11187;SDS011;5650;52.700;7.306;2022-10-22T04:37:26;27.40;;;15.73;;
11187;SDS011;5650;52.700;7.306;2022-10-22T04:39:55;18.33;;;14.27;;
11187;SDS011;5650;52.700;7.306;2022-10-22T04:42:22;16.17;;;12.15;;
11187;SDS011;5650;52.700;7.306;2022-10-22T04:44:52;21.65;;;14.82;;
11187;SDS011;5650;52.700;7.306;2022-10-22T04:47:22;22.02;;;13.85;;
11187;SDS011;5650;52.700;7.306;2022-10-22T04:49:49;18.67;;;12.73;;
11187;SDS011;5650;52.700;7.306;2022-10-22T04:52:16;19.27;;;14.82;;
11187;SDS011;5650;52.700;7.306;2022-10-22T04:54:47;25.20;;;14.63;;
11187;SDS011;5650;52.700;7.306;2022-10-22T04:57:16;24.10;;;15.20;;
11187;SDS011;5650;52.700;7.306;2022-10-22T04:59:43;22.83;;;15.38;;
11187;SDS011;5650;52.700;7.306;2022-10-22T05:02:13;23.65;;;14.45;;
11187;SDS011;5650;52.700;7.306;2022-10-22T05:04:42;23.65;;;16.13;;
11187;SDS011;5650;52.700;7.306;2022-10-22T05:07:15;20.27;;;15.60;;
11187;SDS011;5650;52.700;7.306;2022-10-22T05:09:42;26.38;;;15.10;;
11187;SDS011;5650;52.700;7.306;2022-10-22T05:12:13;23.40;;;14.05;;
11187;SDS011;5650;52.700;7.306;2022-10-22T05:14:43;26.23;;;16.50;;
11187;SDS011;5650;52.700;7.306;2022-10-22T05:17:13;25.60;;;15.55;;
11187;SDS011;5650;52.700;7.306;2022-10-22T05:19:40;24.13;;;14.32;;
11187;SDS011;5650;52.700;7.306;2022-10-22T05:22:07;21.73;;;14.05;;
11187;SDS011;5650;52.700;7.306;2022-10-22T05:24:35;20.17;;;14.02;;
11187;SDS011;5650;52.700;7.306;2022-10-22T05:27:04;18.40;;;14.02;;
11187;SDS011;5650;52.700;7.306;2022-10-22T05:29:32;19.15;;;12.95;;
11187;SDS011;5650;52.700;7.306;2022-10-22T05:32:03;18.48;;;11.98;;
11187;SDS011;5650;52.700;7.306;2022-10-22T05:34:30;20.85;;;11.98;;
11187;SDS011;5650;52.700;7.306;2022-10-22T05:37:03;22.75;;;12.82;;
11187;SDS011;5650;52.700;7.306;2022-10-22T05:39:37;21.45;;;11.75;;
11187;SDS011;5650;52.700;7.306;2022-10-22T05:42:05;22.83;;;13.93;;
11187;SDS011;5650;52.700;7.306;2022-10-22T05:44:38;20.98;;;11.88;;
11187;SDS011;5650;52.700;7.306;2022-10-22T05:47:07;23.77;;;13.38;;
11187;SDS011;5650;52.700;7.306;2022-10-22T05:49:35;20.33;;;14.13;;
11187;SDS011;5650;52.700;7.306;2022-10-22T05:52:02;33.72;;;20.58;;
11187;SDS011;5650;52.700;7.306;2022-10-22T05:54:29;29.00;;;17.77;;
11187;SDS011;5650;52.700;7.306;2022-10-22T05:56:56;40.88;;;23.20;;
11187;SDS011;5650;52.700;7.306;2022-10-22T05:59:23;26.73;;;16.95;;
11187;SDS011;5650;52.700;7.306;2022-10-22T06:01:53;22.98;;;14.77;;
11187;SDS011;5650;52.700;7.306;2022-10-22T06:04:25;21.48;;;15.35;;
11187;SDS011;5650;52.700;7.306;2022-10-22T06:06:52;23.65;;;15.40;;
11187;SDS011;5650;52.700;7.306;2022-10-22T06:09:20;20.52;;;12.32;;
11187;SDS011;5650;52.700;7.306;2022-10-22T06:11:52;17.17;;;12.73;;
11187;SDS011;5650;52.700;7.306;2022-10-22T06:14:20;20.20;;;10.73;;
11187;SDS011;5650;52.700;7.306;2022-10-22T06:16:48;19.95;;;10.88;;
11187;SDS011;5650;52.700;7.306;2022-10-22T06:19:21;16.13;;;11.25;;
11187;SDS011;5650;52.700;7.306;2022-10-22T06:21:52;19.05;;;11.43;;
11187;SDS011;5650;52.700;7.306;2022-10-22T06:24:19;68.82;;;16.10;;
11187;SDS011;5650;52.700;7.306;2022-10-22T06:26:53;67.07;;;16.13;;
11187;SDS011;5650;52.700;7.306;2022-10-22T06:29:20;71.43;;;16.85;;
11187;SDS011;5650;52.700;7.306;2022-10-22T06:31:47;75.47;;;17.40;;
11187;SDS011;5650;52.700;7.306;2022-10-22T06:34:15;58.67;;;16.83;;
11187;SDS011;5650;52.700;7.306;2022-10-22T06:36:43;34.40;;;13.43;;
11187;SDS011;5650;52.700;7.306;2022-10-22T06:39:14;66.05;;;15.30;;
11187;SDS011;5650;52.700;7.306;2022-10-22T06:41:42;51.28;;;15.73;;
11187;SDS011;5650;52.700;7.306;2022-10-22T06:44:11;38.67;;;14.48;;
11187;SDS011;5650;52.700;7.306;2022-10-22T06:46:40;37.38;;;13.82;;
11187;SDS011;5650;52.700;7.306;2022-10-22T06:49:08;21.90;;;13.50;;
11187;SDS011;5650;52.700;7.306;2022-10-22T06:51:38;36.33;;;15.30;;
11187;SDS011;5650;52.700;7.306;2022-10-22T06:54:05;30.70;;;15.18;;
11187;SDS011;5650;52.700;7.306;2022-10-22T06:56:34;18.05;;;11.27;;
11187;SDS011;5650;52.700;7.306;2022-10-22T06:59:01;22.35;;;12.20;;
11187;SDS011;5650;52.700;7.306;2022-10-22T07:01:29;20.20;;;11.45;;
11187;SDS011;5650;52.700;7.306;2022-10-22T07:03:58;20.55;;;11.65;;
11187;SDS011;5650;52.700;7.306;2022-10-22T07:06:27;19.48;;;11.07;;
11187;SDS011;5650;52.700;7.306;2022-10-22T07:08:54;18.55;;;10.85;;
11187;SDS011;5650;52.700;7.306;2022-10-22T07:11:23;14.80;;;10.63;;
11187;SDS011;5650;52.700;7.306;2022-10-22T07:13:54;17.40;;;10.15;;
11187;SDS011;5650;52.700;7.306;2022-10-22T07:16:22;13.60;;;10.55;;
11187;SDS011;5650;52.700;7.306;2022-10-22T07:18:50;20.35;;;10.55;;
11187;SDS011;5650;52.700;7.306;2022-10-22T07:21:18;20.15;;;10.02;;
11187;SDS011;5650;52.700;7.306;2022-10-22T07:23:46;14.00;;;9.90;;
11187;SDS011;5650;52.700;7.306;2022-10-22T07:26:14;16.00;;;8.85;;
11187;SDS011;5650;52.700;7.306;2022-10-22T07:28:44;17.40;;;9.88;;
11187;SDS011;5650;52.700;7.306;2022-10-22T07:31:13;16.33;;;9.15;;
11187;SDS011;5650;52.700;7.306;2022-10-22T07:33:42;13.73;;;8.73;;
11187;SDS011;5650;52.700;7.306;2022-10-22T07:36:10;13.40;;;8.70;;
11187;SDS011;5650;52.700;7.306;2022-10-22T07:38:44;13.60;;;8.63;;
11187;SDS011;5650;52.700;7.306;2022-10-22T07:41:13;12.52;;;8.48;;
11187;SDS011;5650;52.700;7.306;2022-10-22T07:43:43;14.45;;;8.07;;
11187;SDS011;5650;52.700;7.306;2022-10-22T07:46:10;13.75;;;7.93;;
11187;SDS011;5650;52.700;7.306;2022-10-22T07:48:39;14.90;;;8.63;;
11187;SDS011;5650;52.700;7.306;2022-10-22T07:51:12;16.83;;;8.27;;
11187;SDS011;5650;52.700;7.306;2022-10-22T07:53:39;12.48;;;7.47;;
11187;SDS011;5650;52.700;7.306;2022-10-22T07:56:08;13.20;;;7.15;;
11187;SDS011;5650;52.700;7.306;2022-10-22T07:58:35;9.65;;;6.47;;
11187;SDS011;5650;52.700;7.306;2022-10-22T08:01:02;9.23;;;5.80;;
11187;SDS011;5650;52.700;7.306;2022-10-22T08:03:31;13.77;;;5.95;;
11187;SDS011;5650;52.700;7.306;2022-10-22T08:06:00;13.35;;;5.45;;
11187;SDS011;5650;52.700;7.306;2022-10-22T08:08:42;12.98;;;5.85;;
11187;SDS011;5650;52.700;7.306;2022-10-22T08:11:16;10.65;;;6.00;;
11187;SDS011;5650;52.700;7.306;2022-10-22T08:13:55;17.42;;;6.20;;
11187;SDS011;5650;52.700;7.306;2022-10-22T08:16:22;9.30;;;5.95;;
11187;SDS011;5650;52.700;7.306;2022-10-22T08:18:49;11.38;;;5.68;;
11187;SDS011;5650;52.700;7.306;2022-10-22T08:21:18;12.38;;;6.05;;
11187;SDS011;5650;52.700;7.306;2022-10-22T08:23:48;12.15;;;5.38;;
11187;SDS011;5650;52.700;7.306;2022-10-22T08:26:24;13.40;;;5.82;;
11187;SDS011;5650;52.700;7.306;2022-10-22T08:28:51;15.65;;;5.60;;
11187;SDS011;5650;52.700;7.306;2022-10-22T08:31:18;11.60;;;5.43;;
11187;SDS011;5650;52.700;7.306;2022-10-22T08:33:45;15.70;;;5.68;;
11187;SDS011;5650;52.700;7.306;2022-10-22T08:36:12;10.65;;;5.05;;
11187;SDS011;5650;52.700;7.306;2022-10-22T08:38:43;13.57;;;5.53;;
11187;SDS011;5650;52.700;7.306;2022-10-22T08:41:15;18.67;;;5.55;;
11187;SDS011;5650;52.700;7.306;2022-10-22T08:44:00;13.02;;;5.57;;
11187;SDS011;5650;52.700;7.306;2022-10-22T08:46:49;14.10;;;5.97;;
11187;SDS011;5650;52.700;7.306;2022-10-22T08:49:25;13.57;;;5.25;;
11187;SDS011;5650;52.700;7.306;2022-10-22T08:51:54;19.92;;;6.22;;
11187;SDS011;5650;52.700;7.306;2022-10-22T08:54:30;13.57;;;5.50;;
11187;SDS011;5650;52.700;7.306;2022-10-22T08:57:13;11.65;;;5.20;;
11187;SDS011;5650;52.700;7.306;2022-10-22T08:59:56;14.05;;;5.60;;
11187;SDS011;5650;52.700;7.306;2022-10-22T09:02:36;11.88;;;5.20;;
11187;SDS011;5650;52.700;7.306;2022-10-22T09:05:20;13.65;;;5.10;;
11187;SDS011;5650;52.700;7.306;2022-10-22T09:07:56;12.18;;;5.03;;
11187;SDS011;5650;52.700;7.306;2022-10-22T09:10:29;9.55;;;4.60;;
11187;SDS011;5650;52.700;7.306;2022-10-22T09:13:13;13.63;;;5.03;;
11187;SDS011;5650;52.700;7.306;2022-10-22T09:15:43;11.82;;;5.15;;
11187;SDS011;5650;52.700;7.306;2022-10-22T09:18:21;15.18;;;5.47;;
11187;SDS011;5650;52.700;7.306;2022-10-22T09:20:55;12.20;;;4.78;;
11187;SDS011;5650;52.700;7.306;2022-10-22T09:23:38;10.70;;;4.88;;
11187;SDS011;5650;52.700;7.306;2022-10-22T09:26:20;18.42;;;5.20;;
11187;SDS011;5650;52.700;7.306;2022-10-22T09:29:06;12.23;;;4.30;;
11187;SDS011;5650;52.700;7.306;2022-10-22T09:31:49;13.82;;;4.47;;
11187;SDS011;5650;52.700;7.306;2022-10-22T09:34:19;14.95;;;4.60;;
11187;SDS011;5650;52.700;7.306;2022-10-22T09:36:46;12.32;;;4.15;;
11187;SDS011;5650;52.700;7.306;2022-10-22T09:39:30;11.82;;;4.32;;
11187;SDS011;5650;52.700;7.306;2022-10-22T09:42:03;11.80;;;4.05;;
11187;SDS011;5650;52.700;7.306;2022-10-22T09:44:34;14.85;;;4.05;;
11187;SDS011;5650;52.700;7.306;2022-10-22T09:47:03;15.68;;;4.00;;
11187;SDS011;5650;52.700;7.306;2022-10-22T09:49:34;13.65;;;3.92;;
11187;SDS011;5650;52.700;7.306;2022-10-22T09:52:04;9.98;;;3.83;;
11187;SDS011;5650;52.700;7.306;2022-10-22T09:54:53;11.15;;;3.75;;
11187;SDS011;5650;52.700;7.306;2022-10-22T09:57:22;17.13;;;3.70;;
11187;SDS011;5650;52.700;7.306;2022-10-22T09:59:54;10.13;;;3.75;;
11187;SDS011;5650;52.700;7.306;2022-10-22T10:02:30;8.82;;;3.67;;
11187;SDS011;5650;52.700;7.306;2022-10-22T10:05:01;13.75;;;3.35;;
11187;SDS011;5650;52.700;7.306;2022-10-22T10:07:30;12.77;;;3.85;;
11187;SDS011;5650;52.700;7.306;2022-10-22T10:09:58;12.85;;;3.72;;
11187;SDS011;5650;52.700;7.306;2022-10-22T10:12:45;16.67;;;3.70;;
11187;SDS011;5650;52.700;7.306;2022-10-22T10:15:24;12.85;;;3.63;;
11187;SDS011;5650;52.700;7.306;2022-10-22T10:18:02;8.80;;;3.58;;
11187;SDS011;5650;52.700;7.306;2022-10-22T10:20:47;12.30;;;2.95;;
11187;SDS011;5650;52.700;7.306;2022-10-22T10:23:21;14.88;;;3.70;;
11187;SDS011;5650;52.700;7.306;2022-10-22T10:26:06;12.13;;;3.35;;
11187;SDS011;5650;52.700;7.306;2022-10-22T10:28:57;16.40;;;3.75;;
11187;SDS011;5650;52.700;7.306;2022-10-22T10:31:41;8.50;;;3.25;;
11187;SDS011;5650;52.700;7.306;2022-10-22T10:34:42;8.18;;;3.22;;
11187;SDS011;5650;52.700;7.306;2022-10-22T10:37:17;14.57;;;3.55;;
11187;SDS011;5650;52.700;7.306;2022-10-22T10:40:11;18.67;;;3.65;;
11187;SDS011;5650;52.700;7.306;2022-10-22T10:42:52;14.02;;;3.38;;
11187;SDS011;5650;52.700;7.306;2022-10-22T10:45:28;10.82;;;3.30;;
11187;SDS011;5650;52.700;7.306;2022-10-22T10:48:17;13.63;;;3.50;;
11187;SDS011;5650;52.700;7.306;2022-10-22T10:51:14;13.32;;;3.95;;
11187;SDS011;5650;52.700;7.306;2022-10-22T10:53:54;13.90;;;3.80;;
11187;SDS011;5650;52.700;7.306;2022-10-22T10:56:35;11.63;;;3.85;;
11187;SDS011;5650;52.700;7.306;2022-10-22T10:59:18;13.55;;;3.67;;
11187;SDS011;5650;52.700;7.306;2022-10-22T11:01:58;14.43;;;3.40;;
11187;SDS011;5650;52.700;7.306;2022-10-22T11:04:49;10.00;;;3.80;;
11187;SDS011;5650;52.700;7.306;2022-10-22T11:07:41;20.77;;;3.63;;
11187;SDS011;5650;52.700;7.306;2022-10-22T11:10:16;11.40;;;3.10;;
11187;SDS011;5650;52.700;7.306;2022-10-22T11:12:59;12.88;;;3.65;;
11187;SDS011;5650;52.700;7.306;2022-10-22T11:15:36;12.43;;;3.10;;
11187;SDS011;5650;52.700;7.306;2022-10-22T11:18:10;20.77;;;3.45;;
11187;SDS011;5650;52.700;7.306;2022-10-22T11:20:56;19.50;;;3.22;;
11187;SDS011;5650;52.700;7.306;2022-10-22T11:23:37;12.52;;;2.97;;
11187;SDS011;5650;52.700;7.306;2022-10-22T11:26:14;12.77;;;3.53;;
11187;SDS011;5650;52.700;7.306;2022-10-22T11:28:49;10.90;;;3.28;;
11187;SDS011;5650;52.700;7.306;2022-10-22T11:31:18;16.83;;;3.30;;
11187;SDS011;5650;52.700;7.306;2022-10-22T11:33:54;11.02;;;3.10;;
11187;SDS011;5650;52.700;7.306;2022-10-22T11:36:30;9.23;;;2.97;;
11187;SDS011;5650;52.700;7.306;2022-10-22T11:39:01;17.23;;;3.85;;
11187;SDS011;5650;52.700;7.306;2022-10-22T11:41:31;14.25;;;2.95;;
11187;SDS011;5650;52.700;7.306;2022-10-22T11:44:07;11.65;;;3.20;;
11187;SDS011;5650;52.700;7.306;2022-10-22T11:46:42;13.55;;;3.13;;
11187;SDS011;5650;52.700;7.306;2022-10-22T11:49:18;11.60;;;3.15;;
11187;SDS011;5650;52.700;7.306;2022-10-22T11:52:21;14.00;;;3.17;;
11187;SDS011;5650;52.700;7.306;2022-10-22T11:54:49;7.47;;;2.78;;
11187;SDS011;5650;52.700;7.306;2022-10-22T11:57:27;11.80;;;3.13;;
11187;SDS011;5650;52.700;7.306;2022-10-22T12:00:06;6.82;;;2.40;;
11187;SDS011;5650;52.700;7.306;2022-10-22T12:02:37;15.05;;;3.30;;
11187;SDS011;5650;52.700;7.306;2022-10-22T12:08:19;9.02;;;2.90;;
11187;SDS011;5650;52.700;7.306;2022-10-22T12:10:50;20.55;;;3.63;;
11187;SDS011;5650;52.700;7.306;2022-10-22T12:13:52;12.52;;;2.83;;
11187;SDS011;5650;52.700;7.306;2022-10-22T12:16:34;8.48;;;3.17;;
11187;SDS011;5650;52.700;7.306;2022-10-22T12:19:04;9.23;;;3.15;;
11187;SDS011;5650;52.700;7.306;2022-10-22T12:21:43;10.02;;;2.95;;
11187;SDS011;5650;52.700;7.306;2022-10-22T12:24:18;13.52;;;3.15;;
11187;SDS011;5650;52.700;7.306;2022-10-22T12:26:47;11.07;;;3.67;;
11187;SDS011;5650;52.700;7.306;2022-10-22T12:29:16;17.27;;;4.32;;
11187;SDS011;5650;52.700;7.306;2022-10-22T12:31:46;8.45;;;2.88;;
11187;SDS011;5650;52.700;7.306;2022-10-22T12:34:14;10.50;;;2.95;;
11187;SDS011;5650;52.700;7.306;2022-10-22T12:36:45;9.38;;;3.13;;
11187;SDS011;5650;52.700;7.306;2022-10-22T12:39:14;9.95;;;3.35;;
11187;SDS011;5650;52.700;7.306;2022-10-22T12:41:43;7.53;;;2.72;;
11187;SDS011;5650;52.700;7.306;2022-10-22T12:44:11;8.18;;;3.15;;
11187;SDS011;5650;52.700;7.306;2022-10-22T12:46:40;8.85;;;2.83;;
11187;SDS011;5650;52.700;7.306;2022-10-22T12:49:11;15.63;;;3.63;;
11187;SDS011;5650;52.700;7.306;2022-10-22T12:51:44;58.08;;;42.85;;
11187;SDS011;5650;52.700;7.306;2022-10-22T12:54:16;19.88;;;10.95;;
11187;SDS011;5650;52.700;7.306;2022-10-22T12:56:50;17.35;;;8.20;;
11187;SDS011;5650;52.700;7.306;2022-10-22T12:59:19;16.38;;;3.22;;
11187;SDS011;5650;52.700;7.306;2022-10-22T13:01:47;11.15;;;4.28;;
11187;SDS011;5650;52.700;7.306;2022-10-22T13:04:20;16.02;;;3.72;;
11187;SDS011;5650;52.700;7.306;2022-10-22T13:07:05;14.98;;;3.40;;
11187;SDS011;5650;52.700;7.306;2022-10-22T13:09:42;11.65;;;3.45;;
11187;SDS011;5650;52.700;7.306;2022-10-22T13:12:11;11.40;;;3.20;;
11187;SDS011;5650;52.700;7.306;2022-10-22T13:14:40;11.27;;;2.88;;
11187;SDS011;5650;52.700;7.306;2022-10-22T13:17:10;10.15;;;3.17;;
11187;SDS011;5650;52.700;7.306;2022-10-22T13:19:48;11.88;;;3.20;;
11187;SDS011;5650;52.700;7.306;2022-10-22T13:22:31;16.35;;;3.47;;
11187;SDS011;5650;52.700;7.306;2022-10-22T13:25:03;16.98;;;3.28;;
11187;SDS011;5650;52.700;7.306;2022-10-22T13:27:44;14.98;;;3.80;;
11187;SDS011;5650;52.700;7.306;2022-10-22T13:30:16;11.18;;;3.47;;
11187;SDS011;5650;52.700;7.306;2022-10-22T13:32:48;11.75;;;2.90;;
11187;SDS011;5650;52.700;7.306;2022-10-22T13:35:17;25.98;;;13.93;;
11187;SDS011;5650;52.700;7.306;2022-10-22T13:37:49;18.10;;;6.78;;
11187;SDS011;5650;52.700;7.306;2022-10-22T13:40:16;13.18;;;5.80;;
11187;SDS011;5650;52.700;7.306;2022-10-22T13:42:44;11.75;;;4.93;;
11187;SDS011;5650;52.700;7.306;2022-10-22T13:45:11;13.35;;;5.38;;
11187;SDS011;5650;52.700;7.306;2022-10-22T13:47:38;10.68;;;3.88;;
11187;SDS011;5650;52.700;7.306;2022-10-22T13:50:10;15.43;;;4.18;;
11187;SDS011;5650;52.700;7.306;2022-10-22T13:52:41;14.45;;;4.30;;
11187;SDS011;5650;52.700;7.306;2022-10-22T13:55:16;11.52;;;4.05;;
11187;SDS011;5650;52.700;7.306;2022-10-22T13:57:45;15.40;;;3.20;;
11187;SDS011;5650;52.700;7.306;2022-10-22T14:00:14;12.27;;;3.40;;
11187;SDS011;5650;52.700;7.306;2022-10-22T14:02:43;16.30;;;4.82;;
11187;SDS011;5650;52.700;7.306;2022-10-22T14:05:11;11.82;;;4.70;;
11187;SDS011;5650;52.700;7.306;2022-10-22T14:07:39;15.07;;;6.00;;
11187;SDS011;5650;52.700;7.306;2022-10-22T14:10:12;17.75;;;5.60;;
11187;SDS011;5650;52.700;7.306;2022-10-22T14:12:42;14.68;;;4.38;;
11187;SDS011;5650;52.700;7.306;2022-10-22T14:15:13;11.60;;;4.10;;
11187;SDS011;5650;52.700;7.306;2022-10-22T14:17:42;14.95;;;4.80;;
11187;SDS011;5650;52.700;7.306;2022-10-22T14:20:14;15.23;;;4.68;;
11187;SDS011;5650;52.700;7.306;2022-10-22T14:22:43;17.77;;;6.45;;
11187;SDS011;5650;52.700;7.306;2022-10-22T14:25:23;19.60;;;4.15;;
11187;SDS011;5650;52.700;7.306;2022-10-22T14:27:51;8.85;;;3.47;;
11187;SDS011;5650;52.700;7.306;2022-10-22T14:30:20;11.68;;;4.13;;
11187;SDS011;5650;52.700;7.306;2022-10-22T14:32:49;11.88;;;3.15;;
11187;SDS011;5650;52.700;7.306;2022-10-22T14:35:20;14.70;;;3.28;;
11187;SDS011;5650;52.700;7.306;2022-10-22T14:37:48;11.10;;;3.65;;
11187;SDS011;5650;52.700;7.306;2022-10-22T14:40:16;12.65;;;6.10;;
11187;SDS011;5650;52.700;7.306;2022-10-22T14:42:46;9.15;;;3.55;;
11187;SDS011;5650;52.700;7.306;2022-10-22T14:45:17;12.65;;;4.18;;
11187;SDS011;5650;52.700;7.306;2022-10-22T14:47:52;20.63;;;7.35;;
11187;SDS011;5650;52.700;7.306;2022-10-22T14:50:20;19.40;;;7.65;;
11187;SDS011;5650;52.700;7.306;2022-10-22T14:52:50;15.32;;;4.95;;
11187;SDS011;5650;52.700;7.306;2022-10-22T14:55:29;14.65;;;5.30;;
11187;SDS011;5650;52.700;7.306;2022-10-22T14:57:57;12.27;;;4.45;;
11187;SDS011;5650;52.700;7.306;2022-10-22T15:00:24;11.35;;;5.15;;
11187;SDS011;5650;52.700;7.306;2022-10-22T15:02:55;11.95;;;4.32;;
11187;SDS011;5650;52.700;7.306;2022-10-22T15:05:26;15.35;;;4.45;;
11187;SDS011;5650;52.700;7.306;2022-10-22T15:07:53;10.05;;;4.00;;
11187;SDS011;5650;52.700;7.306;2022-10-22T15:10:26;10.70;;;3.42;;
11187;SDS011;5650;52.700;7.306;2022-10-22T15:13:03;12.63;;;3.20;;
11187;SDS011;5650;52.700;7.306;2022-10-22T15:15:38;10.73;;;3.47;;
11187;SDS011;5650;52.700;7.306;2022-10-22T15:18:05;12.75;;;3.50;;
11187;SDS011;5650;52.700;7.306;2022-10-22T15:20:32;16.90;;;9.25;;
11187;SDS011;5650;52.700;7.306;2022-10-22T15:26:21;20.98;;;10.23;;